createdAt,value
2023-02-11T00:01:22.130Z,32.33
2023-02-11T00:06:25.847Z,33.27
2023-02-11T00:11:30.756Z,32.47
2023-02-11T00:16:35.192Z,34.20
2023-02-11T00:21:39.242Z,32.57
2023-02-11T00:26:42.170Z,32.20
2023-02-11T00:31:46.501Z,34.70
2023-02-11T00:36:49.666Z,33.10
2023-02-11T00:41:52.806Z,31.90
2023-02-11T00:46:57.027Z,31.33
2023-02-11T00:52:00.025Z,32.37
2023-02-11T00:57:03.024Z,31.93
2023-02-11T01:02:07.246Z,31.70
2023-02-11T01:07:10.403Z,32.23
2023-02-11T01:12:13.503Z,32.57
2023-02-11T01:17:18.458Z,32.90
2023-02-11T01:22:21.391Z,32.93
2023-02-11T01:27:24.313Z,32.47
2023-02-11T01:32:28.528Z,32.27
2023-02-11T01:37:33.626Z,32.57
2023-02-11T01:42:36.662Z,34.13
2023-02-11T01:47:40.874Z,35.63
2023-02-11T01:52:46.278Z,35.03
2023-02-11T01:57:56.376Z,37.03
2023-02-11T02:03:06.127Z,35.50
2023-02-11T02:08:17.166Z,35.83
2023-02-11T02:13:20.058Z,35.53
2023-02-11T02:18:36.804Z,34.53
2023-02-11T02:24:03.412Z,35.77
2023-02-11T02:29:36.176Z,35.47
2023-02-11T02:34:49.137Z,34.43
2023-02-11T02:39:52.100Z,34.93
2023-02-11T02:44:57.100Z,38.73
2023-02-11T02:50:01.714Z,36.83
2023-02-11T02:55:23.802Z,42.47
2023-02-11T03:00:35.123Z,37.67
2023-02-11T03:05:53.065Z,37.13
2023-02-11T03:10:57.533Z,37.37
2023-02-11T03:16:05.705Z,36.50
2023-02-11T03:21:12.075Z,35.87
2023-02-11T03:26:20.908Z,35.27
2023-02-11T03:31:31.648Z,36.00
2023-02-11T03:36:46.097Z,36.03
2023-02-11T03:41:50.972Z,35.90
2023-02-11T03:46:55.987Z,35.47
2023-02-11T03:52:05.664Z,36.67
2023-02-11T03:57:08.773Z,35.70
2023-02-11T04:02:11.668Z,34.10
2023-02-11T04:07:15.918Z,35.20
2023-02-11T04:12:19.007Z,34.90
2023-02-11T04:17:21.939Z,35.00
2023-02-11T04:22:26.190Z,33.93
2023-02-11T04:27:29.241Z,35.37
2023-02-11T04:32:32.145Z,35.07
2023-02-11T04:37:36.731Z,35.60
2023-02-11T04:42:39.662Z,34.50
2023-02-11T04:47:42.587Z,35.57
2023-02-11T04:52:46.828Z,35.83
2023-02-11T04:57:49.720Z,35.70
2023-02-11T05:02:52.637Z,34.47
2023-02-11T05:07:56.928Z,35.80
2023-02-11T05:12:59.860Z,35.30
2023-02-11T05:18:02.788Z,35.50
2023-02-11T05:23:07.062Z,35.33
2023-02-11T05:28:09.970Z,36.43
2023-02-11T05:33:12.863Z,36.30
2023-02-11T05:38:17.139Z,35.03
2023-02-11T05:43:20.050Z,34.97
2023-02-11T05:48:23.078Z,34.40
2023-02-11T05:53:27.340Z,34.17
2023-02-11T05:58:30.413Z,34.17
2023-02-11T06:03:33.375Z,39.63
2023-02-11T06:08:39.192Z,37.73
2023-02-11T06:13:42.414Z,36.90
2023-02-11T06:18:45.338Z,33.97
2023-02-11T06:23:49.988Z,35.70
2023-02-11T06:28:52.974Z,35.83
2023-02-11T06:33:55.984Z,34.13
2023-02-11T06:39:00.246Z,35.00
2023-02-11T06:44:03.128Z,34.23
2023-02-11T06:49:06.047Z,35.03
2023-02-11T06:54:10.304Z,35.90
2023-02-11T06:59:16.634Z,66.63
2023-02-11T07:04:19.772Z,49.87
2023-02-11T07:09:24.026Z,36.50
2023-02-11T07:14:26.944Z,37.53
2023-02-11T07:19:29.827Z,39.03
2023-02-11T07:24:34.230Z,37.70
2023-02-11T07:29:37.372Z,39.57
2023-02-11T07:34:40.307Z,39.23
2023-02-11T07:39:44.568Z,38.10
2023-02-11T07:44:50.333Z,42.30
2023-02-11T07:49:56.205Z,37.80
2023-02-11T07:55:02.669Z,39.77
2023-02-11T08:00:08.150Z,38.37
2023-02-11T08:05:14.155Z,38.93
2023-02-11T08:10:18.479Z,40.53
2023-02-11T08:15:21.468Z,42.07
2023-02-11T08:20:24.374Z,38.13
2023-02-11T08:25:28.672Z,37.93
2023-02-11T08:30:31.576Z,44.13
2023-02-11T08:35:36.448Z,44.60
2023-02-11T08:40:40.704Z,46.77
2023-02-11T08:45:43.686Z,48.30
2023-02-11T08:50:46.705Z,48.67
2023-02-11T08:55:52.100Z,46.07
2023-02-11T09:00:55.343Z,46.87
2023-02-11T09:05:58.424Z,43.93
2023-02-11T09:11:03.731Z,42.80
2023-02-11T09:16:07.444Z,42.07
2023-02-11T09:21:12.816Z,42.63
2023-02-11T09:26:19.201Z,43.50
2023-02-11T09:31:24.776Z,44.50
2023-02-11T09:36:30.557Z,41.93
2023-02-11T09:42:02.624Z,42.03
2023-02-11T09:47:08.062Z,39.67
2023-02-11T09:52:31.620Z,39.93
2023-02-11T09:57:37.482Z,39.23
2023-02-11T10:02:57.788Z,40.17
2023-02-11T10:08:13.627Z,41.77
2023-02-11T10:13:33.607Z,43.67
2023-02-11T10:18:47.732Z,43.50
2023-02-11T10:23:55.394Z,42.60
2023-02-11T10:29:06.537Z,43.53
2023-02-11T10:34:15.547Z,44.33
2023-02-11T10:39:20.696Z,43.90
2023-02-11T10:44:28.804Z,43.53
2023-02-11T10:49:39.864Z,41.58
2023-02-11T10:54:42.795Z,42.30
2023-02-11T11:00:02.761Z,42.63
2023-02-11T11:05:16.146Z,42.67
2023-02-11T11:10:29.468Z,42.70
2023-02-11T11:15:39.769Z,41.55
2023-02-11T11:20:54.432Z,42.47
2023-02-11T11:26:05.110Z,42.35
2023-02-11T11:31:19.008Z,41.47
2023-02-11T11:36:24.748Z,41.13
2023-02-11T11:41:30.673Z,40.55
2023-02-11T11:46:37.314Z,37.28
2023-02-11T11:51:43.142Z,38.75
2023-02-11T11:56:54.503Z,37.50
2023-02-11T12:02:42.073Z,38.97
2023-02-11T12:07:57.545Z,38.25
2023-02-11T12:13:13.964Z,38.08
2023-02-11T12:19:04.855Z,38.60
2023-02-11T12:24:43.294Z,38.20
2023-02-11T12:30:08.028Z,38.55
2023-02-11T12:42:42.175Z,39.22
2023-02-11T12:49:05.459Z,39.55
2023-02-11T13:07:10.860Z,40.60
2023-02-11T13:12:33.175Z,40.67
2023-02-11T13:17:50.370Z,40.90
2023-02-11T13:23:20.950Z,40.75
2023-02-11T13:28:36.615Z,41.63
2023-02-11T13:33:44.511Z,40.38
2023-02-11T13:39:08.087Z,40.60
2023-02-11T13:44:24.633Z,41.42
2023-02-11T13:49:35.320Z,40.50
2023-02-11T13:54:40.406Z,40.47
2023-02-11T13:59:48.394Z,40.35
2023-02-11T14:05:43.572Z,40.80
2023-02-11T14:10:55.067Z,41.17
2023-02-11T14:16:09.408Z,42.08
2023-02-11T14:21:16.962Z,46.53
2023-02-11T14:26:39.016Z,42.67
2023-02-11T14:31:46.251Z,41.83
2023-02-11T14:36:59.268Z,43.00
2023-02-11T14:42:03.552Z,42.15
2023-02-11T14:47:07.576Z,42.53
2023-02-11T14:52:22.393Z,42.17
2023-02-11T14:57:25.353Z,43.97
2023-02-11T15:02:33.395Z,42.92
2023-02-11T15:07:37.744Z,43.45
2023-02-11T15:12:40.750Z,42.90
2023-02-11T15:17:44.918Z,43.40
2023-02-11T15:22:53.133Z,42.67
2023-02-11T15:27:58.442Z,43.20
2023-02-11T15:33:03.748Z,42.70
2023-02-11T15:38:08.967Z,42.25
2023-02-11T15:43:44.161Z,43.33
2023-02-11T15:48:49.794Z,42.20
2023-02-11T15:53:57.120Z,43.40
2023-02-11T15:59:10.363Z,43.47
2023-02-11T16:04:19.522Z,44.92
2023-02-11T16:09:33.732Z,44.13
2023-02-11T16:14:39.187Z,47.80
2023-02-11T16:19:46.666Z,44.05
2023-02-11T16:24:53.524Z,48.05
2023-02-11T16:29:57.135Z,45.45
2023-02-11T16:35:01.823Z,46.08
2023-02-11T16:40:07.147Z,46.92
2023-02-11T16:45:12.178Z,43.38
2023-02-11T16:50:23.558Z,40.63
2023-02-11T16:55:27.891Z,45.13
2023-02-11T17:00:31.026Z,45.05
2023-02-11T17:05:45.837Z,44.63
2023-02-11T17:10:57.591Z,43.58
2023-02-11T17:16:01.851Z,43.22
2023-02-11T17:21:07.672Z,40.20
2023-02-11T17:26:12.066Z,39.88
2023-02-11T17:31:15.452Z,44.50
2023-02-11T17:36:18.571Z,44.30
2023-02-11T17:41:23.136Z,44.20
2023-02-11T17:46:44.467Z,44.55
2023-02-11T17:51:48.039Z,46.90
2023-02-11T17:56:55.220Z,43.72
2023-02-11T18:02:00.117Z,43.00
2023-02-11T18:07:03.185Z,45.55
2023-02-11T18:12:14.112Z,45.70
2023-02-11T18:17:17.275Z,47.08
2023-02-11T18:23:02.612Z,41.63
2023-02-11T18:28:07.033Z,40.50
2023-02-11T18:33:12.774Z,40.17
2023-02-11T18:38:15.932Z,40.70
2023-02-11T18:43:21.090Z,40.70
2023-02-11T18:48:24.102Z,41.85
2023-02-11T18:53:27.213Z,39.80
2023-02-11T18:58:31.709Z,40.55
2023-02-11T19:03:34.673Z,41.22
2023-02-11T19:08:37.650Z,40.42
2023-02-11T19:13:42.177Z,42.38
2023-02-11T19:19:01.233Z,45.40
2023-02-11T19:24:11.591Z,44.75
2023-02-11T19:29:16.974Z,41.38
2023-02-11T19:34:44.228Z,39.50
2023-02-11T19:40:00.942Z,39.60
2023-02-11T19:45:13.085Z,40.40
2023-02-11T19:50:22.113Z,40.42
2023-02-11T19:55:32.211Z,42.00
2023-02-11T20:01:39.664Z,38.90
2023-02-11T20:13:28.483Z,42.10
2023-02-11T20:18:35.474Z,41.95
2023-02-11T20:23:42.524Z,49.25
2023-02-11T20:36:07.129Z,47.92
2023-02-11T20:41:14.988Z,43.70
2023-02-11T20:46:20.139Z,44.50
2023-02-11T20:51:28.409Z,43.17
2023-02-11T20:56:36.609Z,46.25
2023-02-11T21:01:58.946Z,44.22
2023-02-11T21:07:03.232Z,43.30
2023-02-11T21:12:17.518Z,43.90
2023-02-11T21:17:20.970Z,42.13
2023-02-11T21:22:23.963Z,43.28
2023-02-11T21:27:32.308Z,43.70
2023-02-11T21:32:35.225Z,44.20
2023-02-11T21:37:38.176Z,43.95
2023-02-11T21:42:53.649Z,42.90
2023-02-11T21:47:56.598Z,42.05
2023-02-11T21:52:59.523Z,43.13
2023-02-11T21:58:04.095Z,44.13
2023-02-11T22:03:07.018Z,44.28
2023-02-11T22:08:09.983Z,44.08
2023-02-11T22:13:14.434Z,43.35
2023-02-11T22:18:17.348Z,45.33
2023-02-11T22:23:20.234Z,44.33
2023-02-11T22:28:26.083Z,45.28
2023-02-11T22:33:29.608Z,45.10
2023-02-11T22:38:33.743Z,43.83
2023-02-11T22:43:38.775Z,44.83
2023-02-11T22:48:41.730Z,43.63
2023-02-11T22:53:44.709Z,44.45
2023-02-11T22:58:49.993Z,45.92
2023-02-11T23:03:53.032Z,44.13
2023-02-11T23:08:56.278Z,43.03
2023-02-11T23:14:08.563Z,42.63
2023-02-11T23:19:12.382Z,42.58
2023-02-11T23:24:16.109Z,43.35
2023-02-11T23:29:20.391Z,43.60
2023-02-11T23:34:25.463Z,41.20
2023-02-11T23:39:28.389Z,40.90
2023-02-11T23:44:32.833Z,41.10
2023-02-11T23:49:36.066Z,43.17
2023-02-11T23:54:38.976Z,42.83
2023-02-11T23:59:43.320Z,42.85
